Time;durP1;ratioP1;P1;durP2;ratioP2;P2;SDS_P1;SDS_P2;PMS_P1;PMS_P2;Temp;Humidity;BMP_temperature;BMP_pressure;BME280_temperature;BME280_humidity;BME280_pressure;Samples;Min_cycle;Max_cycle;Signal;HPM_P1;HPM_P2
2023/12/11 00:01:58;;;;;;;25.40;4.13;;;8.70;99.90;;;;;;5059658;28;20044;-79
2023/12/11 00:04:24;;;;;;;32.88;5.68;;;8.70;99.90;;;;;;5051933;28;20412;-79
2023/12/11 00:06:49;;;;;;;26.23;4.72;;;8.80;99.90;;;;;;5052013;28;20076;-80
2023/12/11 00:09:15;;;;;;;28.60;4.53;;;8.60;99.90;;;;;;5053729;28;20048;-79
2023/12/11 00:11:41;;;;;;;26.83;3.95;;;8.50;99.90;;;;;;5060449;28;20052;-78
2023/12/11 00:14:07;;;;;;;26.92;4.88;;;8.50;99.90;;;;;;5059064;28;20044;-78
2023/12/11 00:16:32;;;;;;;37.70;6.05;;;8.50;99.90;;;;;;5058403;28;20068;-79
2023/12/11 00:18:58;;;;;;;23.85;5.50;;;8.50;99.90;;;;;;5056027;28;20057;-80
2023/12/11 00:21:23;;;;;;;22.80;4.53;;;8.40;99.90;;;;;;5061751;28;20052;-79
2023/12/11 00:23:49;;;;;;;31.10;5.03;;;8.40;99.90;;;;;;5072883;28;20056;-79
2023/12/11 00:26:15;;;;;;;33.83;4.80;;;8.60;99.90;;;;;;5071147;28;20048;-79
2023/12/11 00:28:41;;;;;;;38.50;5.30;;;8.40;99.90;;;;;;5064749;28;20634;-80
2023/12/11 00:31:07;;;;;;;26.42;5.03;;;8.40;99.90;;;;;;5057859;28;20132;-79
2023/12/11 00:33:34;;;;;;;30.92;5.10;;;8.40;99.90;;;;;;5061015;28;20555;-78
2023/12/11 00:36:00;;;;;;;35.13;5.95;;;8.40;99.90;;;;;;5071404;28;20044;-80
2023/12/11 00:38:26;;;;;;;28.02;4.68;;;8.40;99.90;;;;;;5067127;28;20083;-80
2023/12/11 00:40:53;;;;;;;44.58;5.85;;;8.40;99.90;;;;;;5064038;28;20433;-80
2023/12/11 00:43:19;;;;;;;35.17;5.95;;;8.40;99.90;;;;;;5065211;28;20500;-79
2023/12/11 00:45:44;;;;;;;35.63;5.28;;;8.40;99.90;;;;;;5071666;28;20685;-79
2023/12/11 00:48:10;;;;;;;32.85;5.68;;;8.50;99.90;;;;;;5065731;28;20051;-79
2023/12/11 00:50:36;;;;;;;32.53;4.78;;;8.40;99.90;;;;;;5054786;28;20429;-80
2023/12/11 00:53:02;;;;;;;36.03;5.63;;;8.40;99.90;;;;;;5071241;28;20047;-79
2023/12/11 00:55:27;;;;;;;29.95;5.47;;;8.40;99.90;;;;;;5063769;28;20079;-78
2023/12/11 00:57:53;;;;;;;28.50;5.40;;;8.50;99.90;;;;;;5065190;28;20131;-79
2023/12/11 01:00:19;;;;;;;38.28;6.07;;;8.40;99.90;;;;;;5066875;28;20101;-79
2023/12/11 01:02:45;;;;;;;33.47;5.35;;;8.40;99.90;;;;;;5070680;28;20051;-79
2023/12/11 01:05:10;;;;;;;45.40;5.88;;;8.40;99.90;;;;;;5054503;28;20052;-78
2023/12/11 01:07:36;;;;;;;38.28;4.68;;;8.40;99.90;;;;;;5055341;28;20074;-79
2023/12/11 01:10:03;;;;;;;39.08;5.63;;;8.40;99.90;;;;;;5064155;28;20055;-78
2023/12/11 01:12:28;;;;;;;30.20;4.82;;;8.40;99.90;;;;;;5067237;28;20467;-80
2023/12/11 01:14:54;;;;;;;40.10;5.85;;;8.40;99.90;;;;;;5070774;28;20068;-79
2023/12/11 01:17:19;;;;;;;43.05;6.32;;;8.40;99.90;;;;;;5058293;28;20059;-79
2023/12/11 01:19:45;;;;;;;28.90;5.72;;;8.40;99.90;;;;;;5068174;28;20079;-79
2023/12/11 01:22:11;;;;;;;36.85;6.13;;;8.40;99.90;;;;;;5071025;28;20067;-78
2023/12/11 01:24:37;;;;;;;33.70;5.30;;;8.40;99.90;;;;;;5064270;28;20045;-78
2023/12/11 01:27:03;;;;;;;35.22;5.55;;;8.40;99.90;;;;;;5053620;28;20114;-78
2023/12/11 01:29:28;;;;;;;31.42;5.38;;;8.40;99.90;;;;;;5051451;28;20249;-80
2023/12/11 01:31:54;;;;;;;41.42;4.80;;;8.40;99.90;;;;;;5069132;28;20052;-79
2023/12/11 01:34:20;;;;;;;41.30;6.07;;;8.40;99.90;;;;;;5068095;28;20119;-79
2023/12/11 01:36:45;;;;;;;27.35;5.72;;;8.40;99.90;;;;;;5054982;28;20463;-78
2023/12/11 01:39:11;;;;;;;34.35;5.55;;;8.40;99.90;;;;;;5052314;28;20399;-78
2023/12/11 01:41:37;;;;;;;32.10;4.57;;;8.50;99.90;;;;;;5057945;28;20170;-79
2023/12/11 01:44:03;;;;;;;31.25;4.82;;;8.60;99.90;;;;;;5070092;28;20067;-78
2023/12/11 01:46:30;;;;;;;28.15;4.32;;;8.50;99.90;;;;;;5063410;28;20690;-80
2023/12/11 01:48:55;;;;;;;35.55;5.15;;;8.50;99.90;;;;;;5044123;28;20048;-78
2023/12/11 01:51:21;;;;;;;27.85;5.30;;;8.50;99.90;;;;;;5063911;28;20067;-78
2023/12/11 01:53:48;;;;;;;29.83;4.30;;;8.50;99.90;;;;;;5059025;28;20111;-79
2023/12/11 01:56:16;;;;;;;28.50;4.80;;;8.50;99.90;;;;;;5062322;28;20044;-80
2023/12/11 01:58:42;;;;;;;25.58;4.18;;;8.50;99.90;;;;;;5070741;28;20498;-78
2023/12/11 02:01:10;;;;;;;26.55;4.10;;;8.60;99.90;;;;;;5065074;28;20075;-79
2023/12/11 02:03:37;;;;;;;28.60;5.40;;;8.50;99.90;;;;;;5053774;28;20060;-82
2023/12/11 02:06:03;;;;;;;29.08;4.20;;;8.60;99.90;;;;;;5066962;28;20044;-78
2023/12/11 02:08:29;;;;;;;23.42;4.72;;;8.60;99.90;;;;;;5050082;28;20444;-79
2023/12/11 02:10:54;;;;;;;30.80;4.68;;;8.60;99.90;;;;;;5053808;28;20045;-79
2023/12/11 02:13:20;;;;;;;30.73;5.60;;;8.60;99.90;;;;;;5061681;28;20036;-79
2023/12/11 02:15:47;;;;;;;34.33;6.35;;;8.60;99.90;;;;;;5053977;28;20439;-79
2023/12/11 02:18:16;;;;;;;38.50;5.95;;;8.60;99.90;;;;;;5050050;28;20051;-80
2023/12/11 02:20:42;;;;;;;41.97;5.35;;;8.60;99.90;;;;;;5050006;28;20123;-78
2023/12/11 02:23:30;;;;;;;36.15;6.18;;;8.60;99.90;;;;;;5050130;28;20060;-78
2023/12/11 02:26:07;;;;;;;40.17;6.05;;;8.60;99.90;;;;;;5063139;28;20041;-80
2023/12/11 02:28:33;;;;;;;38.28;6.18;;;8.70;99.90;;;;;;5059080;28;20053;-78
2023/12/11 02:30:59;;;;;;;29.98;6.15;;;8.90;99.90;;;;;;5057901;28;20041;-79
2023/12/11 02:33:24;;;;;;;30.13;5.35;;;8.70;99.90;;;;;;5057094;28;20045;-79
2023/12/11 02:35:50;;;;;;;32.70;7.20;;;8.70;99.90;;;;;;5062896;28;20053;-79
2023/12/11 02:38:15;;;;;;;42.97;6.45;;;8.60;99.90;;;;;;5052634;28;20138;-79
2023/12/11 02:40:41;;;;;;;36.58;6.13;;;8.70;99.90;;;;;;5068880;28;20063;-78
2023/12/11 02:43:07;;;;;;;50.05;6.35;;;8.70;99.90;;;;;;5060888;28;20048;-79
2023/12/11 02:45:32;;;;;;;40.13;5.95;;;8.70;99.90;;;;;;5049971;28;20039;-78
2023/12/11 02:48:02;;;;;;;33.17;4.95;;;8.70;99.90;;;;;;5049816;28;20048;-79
2023/12/11 02:50:29;;;;;;;31.92;5.57;;;8.70;99.90;;;;;;5050076;28;20131;-79
2023/12/11 02:52:59;;;;;;;30.75;6.97;;;8.70;99.90;;;;;;5063436;28;20048;-79
2023/12/11 02:55:24;;;;;;;32.50;6.15;;;8.70;99.90;;;;;;5049700;28;20053;-79
2023/12/11 02:57:52;;;;;;;32.65;5.00;;;8.70;99.90;;;;;;5063894;28;20051;-80
2023/12/11 03:00:18;;;;;;;45.42;6.20;;;8.80;99.90;;;;;;5037361;28;20114;-79
2023/12/11 03:02:44;;;;;;;29.85;5.45;;;8.70;99.90;;;;;;5065274;28;20049;-79
2023/12/11 03:05:09;;;;;;;38.53;6.88;;;8.70;99.90;;;;;;5053552;28;20041;-79
2023/12/11 03:07:35;;;;;;;47.50;7.03;;;8.70;99.90;;;;;;5054812;28;20496;-78
2023/12/11 03:10:00;;;;;;;40.55;6.55;;;8.70;99.90;;;;;;5065648;28;20426;-78
2023/12/11 03:12:26;;;;;;;38.58;6.28;;;8.70;99.90;;;;;;5062665;28;20102;-78
2023/12/11 03:14:51;;;;;;;50.10;6.60;;;8.70;99.90;;;;;;5064215;28;20037;-80
2023/12/11 03:17:17;;;;;;;43.85;6.80;;;8.70;99.90;;;;;;5069010;28;20399;-79
2023/12/11 03:19:43;;;;;;;43.83;7.30;;;8.70;99.90;;;;;;5070719;28;20083;-78
2023/12/11 03:22:08;;;;;;;44.75;6.65;;;8.70;99.90;;;;;;5064796;28;20044;-79
2023/12/11 03:24:34;;;;;;;56.53;7.47;;;8.70;99.90;;;;;;5064756;28;20077;-79
2023/12/11 03:27:00;;;;;;;40.33;6.97;;;8.70;99.90;;;;;;5053891;28;20044;-79
2023/12/11 03:29:25;;;;;;;49.60;8.18;;;8.70;99.90;;;;;;5073600;28;20131;-79
2023/12/11 03:31:51;;;;;;;38.05;7.03;;;8.70;99.90;;;;;;5073024;28;20101;-79
2023/12/11 03:34:16;;;;;;;42.47;7.57;;;8.70;99.90;;;;;;5071170;28;20076;-79
2023/12/11 03:36:42;;;;;;;47.10;6.93;;;8.70;99.90;;;;;;5066157;28;20170;-78
2023/12/11 03:39:08;;;;;;;40.35;5.78;;;8.70;99.90;;;;;;5064988;28;20590;-80
2023/12/11 03:41:34;;;;;;;53.05;6.47;;;8.70;99.90;;;;;;5070519;28;20120;-79
2023/12/11 03:43:59;;;;;;;47.20;7.47;;;8.70;99.90;;;;;;5069167;28;20221;-80
2023/12/11 03:46:25;;;;;;;48.35;6.88;;;8.70;99.90;;;;;;5072167;28;20040;-80
2023/12/11 03:48:50;;;;;;;50.33;7.47;;;8.70;99.90;;;;;;5056743;28;20073;-79
2023/12/11 03:51:16;;;;;;;50.25;7.53;;;8.70;99.90;;;;;;5055198;28;20404;-79
2023/12/11 03:53:41;;;;;;;45.03;7.38;;;8.70;99.90;;;;;;5056739;28;20041;-78
2023/12/11 03:56:08;;;;;;;38.83;6.88;;;8.60;99.90;;;;;;5066111;28;20048;-79
2023/12/11 03:58:33;;;;;;;43.58;7.03;;;8.60;99.90;;;;;;5054494;28;20052;-78
2023/12/11 04:00:59;;;;;;;37.63;6.88;;;8.60;99.90;;;;;;5055903;28;20473;-79
2023/12/11 04:03:25;;;;;;;49.35;7.43;;;8.60;99.90;;;;;;5063942;28;20059;-78
2023/12/11 04:05:50;;;;;;;46.55;6.65;;;8.60;99.90;;;;;;5057757;28;20052;-79
2023/12/11 04:08:16;;;;;;;49.38;8.10;;;8.60;99.90;;;;;;5056703;28;20045;-79
2023/12/11 04:10:42;;;;;;;59.40;8.18;;;8.60;99.90;;;;;;5053062;28;20404;-79
2023/12/11 04:13:07;;;;;;;48.47;7.78;;;8.60;99.90;;;;;;5055951;28;20049;-78
2023/12/11 04:15:33;;;;;;;47.90;6.38;;;8.60;99.90;;;;;;5054177;28;20036;-77
2023/12/11 04:17:59;;;;;;;45.60;7.18;;;8.70;99.90;;;;;;5062424;28;20048;-79
2023/12/11 04:20:24;;;;;;;53.33;8.05;;;8.70;99.90;;;;;;5067727;28;20141;-78
2023/12/11 04:22:50;;;;;;;45.08;7.10;;;8.70;99.90;;;;;;5058929;28;20048;-79
2023/12/11 04:25:16;;;;;;;53.97;7.47;;;8.70;99.90;;;;;;5063312;28;20124;-79
2023/12/11 04:27:41;;;;;;;37.35;6.85;;;8.70;99.90;;;;;;5058437;28;20048;-77
2023/12/11 04:30:07;;;;;;;49.20;6.78;;;8.70;99.90;;;;;;5070994;28;20055;-79
2023/12/11 04:32:33;;;;;;;44.33;6.93;;;8.70;99.90;;;;;;5070241;28;20049;-78
2023/12/11 04:34:59;;;;;;;44.60;7.28;;;8.70;99.90;;;;;;5047916;28;20052;-78
2023/12/11 04:37:24;;;;;;;46.50;6.18;;;8.70;99.90;;;;;;5057864;28;20066;-78
2023/12/11 04:39:50;;;;;;;42.78;7.45;;;8.80;99.90;;;;;;5072005;28;20056;-77
2023/12/11 04:42:16;;;;;;;53.00;8.07;;;8.80;99.90;;;;;;5071270;28;20400;-78
2023/12/11 04:44:41;;;;;;;46.72;6.95;;;8.80;99.90;;;;;;5053366;28;20045;-78
2023/12/11 04:47:07;;;;;;;50.17;8.02;;;8.80;99.90;;;;;;5054721;28;20067;-79
2023/12/11 04:49:33;;;;;;;39.67;7.55;;;8.80;99.90;;;;;;5068165;28;20044;-78
2023/12/11 04:51:59;;;;;;;50.13;6.90;;;8.80;99.90;;;;;;5069386;28;20121;-78
2023/12/11 04:54:25;;;;;;;36.97;7.20;;;8.80;99.90;;;;;;5065934;28;20045;-78
2023/12/11 04:56:51;;;;;;;53.85;6.57;;;8.80;99.90;;;;;;5055336;28;20047;-77
2023/12/11 04:59:16;;;;;;;46.45;6.22;;;8.80;99.90;;;;;;5060260;28;20048;-79
2023/12/11 05:01:42;;;;;;;53.88;6.47;;;8.80;99.90;;;;;;5071023;28;20446;-79
2023/12/11 05:04:08;;;;;;;42.38;6.43;;;8.80;99.90;;;;;;5063786;28;20052;-77
2023/12/11 05:06:33;;;;;;;48.50;7.63;;;8.80;99.90;;;;;;5064034;28;20047;-77
2023/12/11 05:08:59;;;;;;;33.30;5.78;;;8.80;99.90;;;;;;5062744;28;20404;-78
2023/12/11 05:11:24;;;;;;;45.22;6.50;;;8.80;99.90;;;;;;5052966;28;20056;-78
2023/12/11 05:13:50;;;;;;;38.08;6.72;;;8.80;99.90;;;;;;5051742;28;20041;-79
2023/12/11 05:16:16;;;;;;;43.25;6.00;;;8.80;99.90;;;;;;5065008;28;20094;-78
2023/12/11 05:18:42;;;;;;;44.80;6.45;;;8.80;99.90;;;;;;5056649;28;20053;-79
2023/12/11 05:21:10;;;;;;;41.38;6.22;;;8.80;99.90;;;;;;5068754;28;20139;-78
2023/12/11 05:23:37;;;;;;;49.17;6.40;;;8.90;99.90;;;;;;5054120;28;20077;-79
2023/12/11 05:26:02;;;;;;;45.65;6.13;;;8.80;99.90;;;;;;5062480;28;20042;-79
2023/12/11 05:28:29;;;;;;;47.33;6.07;;;8.80;99.90;;;;;;5067837;28;20052;-79
2023/12/11 05:30:54;;;;;;;43.83;6.35;;;8.80;99.90;;;;;;5071204;28;20045;-78
2023/12/11 05:33:20;;;;;;;40.55;6.18;;;8.80;99.90;;;;;;5060058;28;20052;-78
2023/12/11 05:35:46;;;;;;;40.22;6.65;;;8.80;99.90;;;;;;5052151;28;20488;-79
2023/12/11 05:38:11;;;;;;;37.75;6.13;;;8.80;99.90;;;;;;5067753;28;20539;-78
2023/12/11 05:40:37;;;;;;;32.10;5.60;;;8.80;99.90;;;;;;5054573;28;20048;-78
2023/12/11 05:43:03;;;;;;;33.05;5.18;;;8.80;99.90;;;;;;5055076;28;20072;-78
2023/12/11 05:45:29;;;;;;;36.45;6.07;;;8.80;99.90;;;;;;5061402;28;20076;-77
2023/12/11 05:47:54;;;;;;;30.38;4.82;;;8.70;99.90;;;;;;5058518;28;20051;-78
2023/12/11 05:50:20;;;;;;;37.25;5.05;;;8.70;99.90;;;;;;5067636;28;20044;-78
2023/12/11 05:52:46;;;;;;;34.05;5.70;;;8.70;99.90;;;;;;5063562;28;20044;-78
2023/12/11 05:55:11;;;;;;;40.75;5.82;;;8.80;99.90;;;;;;5070456;28;20097;-78
2023/12/11 05:57:37;;;;;;;31.40;5.72;;;8.70;99.90;;;;;;5067476;28;20040;-78
2023/12/11 06:00:04;;;;;;;33.30;5.78;;;8.70;99.90;;;;;;5055456;28;20045;-78
2023/12/11 06:02:29;;;;;;;36.55;5.85;;;8.70;99.90;;;;;;5062925;28;20040;-78
2023/12/11 06:04:55;;;;;;;39.85;6.05;;;8.80;99.90;;;;;;5067086;28;20412;-78
2023/12/11 06:07:21;;;;;;;37.63;4.93;;;8.80;99.90;;;;;;5064352;28;20032;-79
2023/12/11 06:09:46;;;;;;;36.67;6.30;;;8.80;99.90;;;;;;5061170;28;20041;-77
2023/12/11 06:12:12;;;;;;;34.05;5.60;;;8.80;99.90;;;;;;5050749;28;20037;-78
2023/12/11 06:14:41;;;;;;;42.08;4.43;;;8.80;99.90;;;;;;5051653;28;20048;-78
2023/12/11 06:17:06;;;;;;;29.08;4.75;;;8.80;99.90;;;;;;5058715;28;20048;-80
2023/12/11 06:19:32;;;;;;;28.17;4.75;;;8.80;99.90;;;;;;5064644;28;20598;-78
2023/12/11 06:21:58;;;;;;;33.20;5.22;;;8.80;99.90;;;;;;5051058;28;20071;-77
2023/12/11 06:24:23;;;;;;;34.35;4.68;;;8.80;99.90;;;;;;5065131;28;20047;-77
2023/12/11 06:26:49;;;;;;;34.83;5.40;;;8.80;99.90;;;;;;5058144;28;20102;-77
2023/12/11 06:29:14;;;;;;;33.70;5.38;;;8.80;99.90;;;;;;5049752;28;20568;-78
2023/12/11 06:31:40;;;;;;;34.00;4.80;;;8.80;99.90;;;;;;5038621;28;20124;-78
2023/12/11 06:34:06;;;;;;;35.65;5.75;;;8.80;99.90;;;;;;5063576;28;20095;-77
2023/12/11 06:36:32;;;;;;;30.35;4.95;;;8.80;99.90;;;;;;5058323;28;20037;-79
2023/12/11 06:38:58;;;;;;;31.63;4.88;;;8.80;99.90;;;;;;5064166;28;20106;-78
2023/12/11 06:41:24;;;;;;;23.30;4.32;;;8.80;99.90;;;;;;5061671;28;20060;-77
2023/12/11 06:43:52;;;;;;;42.85;5.25;;;8.80;99.90;;;;;;5051470;28;20679;-78
2023/12/11 06:46:19;;;;;;;30.33;5.07;;;8.80;99.90;;;;;;5061750;28;20048;-78
2023/12/11 06:48:44;;;;;;;37.40;5.05;;;8.80;99.90;;;;;;5068842;28;20040;-77
2023/12/11 06:51:10;;;;;;;33.10;5.57;;;8.80;99.90;;;;;;5064337;28;20052;-78
2023/12/11 06:53:36;;;;;;;31.83;4.68;;;8.80;99.90;;;;;;5065289;28;20048;-77
2023/12/11 06:56:03;;;;;;;25.52;3.83;;;8.80;99.90;;;;;;5070886;28;20041;-77
2023/12/11 06:58:29;;;;;;;29.02;5.50;;;8.80;99.90;;;;;;5058542;28;20064;-78
2023/12/11 07:00:55;;;;;;;20.45;4.80;;;8.80;99.90;;;;;;5065434;28;20084;-78
2023/12/11 07:03:20;;;;;;;29.08;3.75;;;8.80;99.90;;;;;;5052918;28;20092;-77
2023/12/11 07:05:46;;;;;;;37.33;4.93;;;8.80;99.90;;;;;;5050090;28;20041;-78
2023/12/11 07:08:12;;;;;;;37.05;5.95;;;8.80;99.90;;;;;;5055519;28;20082;-77
2023/12/11 07:10:38;;;;;;;25.52;4.28;;;8.80;99.90;;;;;;5069554;28;20048;-77
2023/12/11 07:13:04;;;;;;;29.40;4.65;;;8.80;99.90;;;;;;5066647;28;20512;-77
2023/12/11 07:15:30;;;;;;;35.60;5.25;;;8.70;99.90;;;;;;5059921;28;20123;-77
2023/12/11 07:17:58;;;;;;;31.77;5.57;;;8.80;99.90;;;;;;5058563;28;20416;-79
2023/12/11 07:20:24;;;;;;;27.50;4.00;;;8.80;99.90;;;;;;5068395;28;20468;-76
2023/12/11 07:22:50;;;;;;;29.05;3.95;;;8.80;99.90;;;;;;5053701;28;20055;-79
2023/12/11 07:25:16;;;;;;;30.45;4.00;;;8.70;99.90;;;;;;5061949;28;20064;-79
2023/12/11 07:27:42;;;;;;;23.10;4.32;;;8.70;99.90;;;;;;5063523;28;20377;-80
2023/12/11 07:30:09;;;;;;;23.48;4.47;;;8.70;99.90;;;;;;5054507;28;20045;-78
2023/12/11 07:32:34;;;;;;;33.55;4.55;;;8.70;99.90;;;;;;5054761;28;20123;-77
2023/12/11 07:35:00;;;;;;;32.20;4.07;;;8.70;99.90;;;;;;5067346;28;20127;-77
2023/12/11 07:37:26;;;;;;;26.10;4.15;;;8.80;99.90;;;;;;5058199;28;20049;-78
2023/12/11 07:39:51;;;;;;;40.75;4.72;;;8.70;99.90;;;;;;5066147;28;20095;-80
2023/12/11 07:42:17;;;;;;;28.20;3.85;;;8.80;99.90;;;;;;5064046;28;20389;-80
2023/12/11 07:44:43;;;;;;;28.25;3.90;;;8.70;99.90;;;;;;5055003;28;20115;-80
2023/12/11 07:47:08;;;;;;;29.25;4.28;;;8.80;99.90;;;;;;5056482;28;20045;-80
2023/12/11 07:49:34;;;;;;;33.40;4.10;;;8.70;99.90;;;;;;5061661;28;20045;-81
2023/12/11 07:52:01;;;;;;;29.75;4.63;;;8.70;99.90;;;;;;5051787;28;20049;-80
2023/12/11 07:54:27;;;;;;;23.00;4.88;;;8.70;99.90;;;;;;5034677;28;20041;-80
2023/12/11 07:56:53;;;;;;;24.45;4.30;;;8.70;99.90;;;;;;5051444;28;20055;-80
2023/12/11 07:59:18;;;;;;;29.45;4.22;;;8.70;99.90;;;;;;5074336;28;20047;-79
2023/12/11 08:01:44;;;;;;;31.10;4.43;;;8.70;99.90;;;;;;5075455;28;20087;-79
2023/12/11 08:04:09;;;;;;;30.95;3.72;;;8.70;99.90;;;;;;5060566;28;20562;-80
2023/12/11 08:06:42;;;;;;;21.05;3.60;;;8.70;99.90;;;;;;5068521;28;20036;-79
2023/12/11 08:09:08;;;;;;;29.08;4.40;;;8.70;99.90;;;;;;5074783;28;20056;-80
2023/12/11 08:11:34;;;;;;;26.25;4.32;;;8.70;99.90;;;;;;5056900;28;20045;-79
2023/12/11 08:14:00;;;;;;;19.73;3.38;;;8.70;99.90;;;;;;5054412;28;20053;-81
2023/12/11 08:16:26;;;;;;;32.38;4.57;;;8.70;99.90;;;;;;5064536;28;20052;-79
2023/12/11 08:18:52;;;;;;;26.50;4.68;;;8.70;99.90;;;;;;5053363;28;20067;-79
2023/12/11 08:21:18;;;;;;;22.77;3.63;;;8.70;99.90;;;;;;5071221;28;20052;-79
2023/12/11 08:23:44;;;;;;;17.55;3.58;;;8.80;99.90;;;;;;5060858;28;20388;-78
2023/12/11 08:26:11;;;;;;;19.23;4.18;;;8.70;99.90;;;;;;5053377;28;20072;-80
2023/12/11 08:28:37;;;;;;;24.40;4.82;;;8.70;99.90;;;;;;5060632;28;20067;-80
2023/12/11 08:31:03;;;;;;;22.10;3.95;;;8.70;99.90;;;;;;5053127;28;20045;-78
2023/12/11 08:33:29;;;;;;;26.65;3.83;;;8.70;99.90;;;;;;5052988;28;20404;-79
2023/12/11 08:35:55;;;;;;;22.23;3.85;;;8.70;99.90;;;;;;5053559;28;20435;-79
2023/12/11 08:38:22;;;;;;;20.63;3.72;;;8.70;99.90;;;;;;5092476;28;20044;-79
2023/12/11 08:40:49;;;;;;;23.20;3.75;;;8.70;99.90;;;;;;5093181;28;20106;-79
2023/12/11 08:43:14;;;;;;;19.52;3.42;;;8.80;99.90;;;;;;5085188;28;20048;-82
2023/12/11 08:45:40;;;;;;;19.13;3.75;;;8.70;99.90;;;;;;5071783;28;20127;-83
2023/12/11 08:48:06;;;;;;;19.92;3.35;;;8.70;99.90;;;;;;5070448;28;20048;-83
2023/12/11 08:50:32;;;;;;;25.00;4.20;;;8.70;99.90;;;;;;5071974;28;20053;-82
2023/12/11 08:52:59;;;;;;;17.88;3.53;;;8.80;99.90;;;;;;5054999;28;20045;-83
2023/12/11 08:55:24;;;;;;;17.30;3.38;;;8.70;99.90;;;;;;5052178;28;20049;-82
2023/12/11 08:57:50;;;;;;;18.77;3.63;;;8.70;99.90;;;;;;5066752;28;20106;-83
2023/12/11 09:00:16;;;;;;;17.85;3.30;;;8.70;99.90;;;;;;5071735;28;20126;-83
2023/12/11 09:02:42;;;;;;;20.08;4.18;;;8.70;99.90;;;;;;5072048;28;20056;-83
2023/12/11 09:05:08;;;;;;;13.05;3.05;;;8.70;99.90;;;;;;5055712;28;20067;-83
2023/12/11 09:07:34;;;;;;;19.45;3.38;;;8.80;99.90;;;;;;5052623;28;20049;-83
2023/12/11 09:10:01;;;;;;;11.45;2.45;;;8.80;99.90;;;;;;5052119;28;20128;-83
2023/12/11 09:12:26;;;;;;;17.83;4.00;;;8.80;99.90;;;;;;5052401;28;20141;-83
2023/12/11 09:14:52;;;;;;;20.15;3.60;;;8.70;99.90;;;;;;5061352;28;20441;-83
2023/12/11 09:17:18;;;;;;;16.02;3.17;;;8.90;99.90;;;;;;5052157;28;20061;-83
2023/12/11 09:19:44;;;;;;;21.65;3.85;;;8.90;99.90;;;;;;5051304;28;20139;-82
2023/12/11 09:22:11;;;;;;;17.08;3.50;;;8.80;99.90;;;;;;5051267;28;20045;-82
2023/12/11 09:24:37;;;;;;;21.45;3.00;;;8.80;99.90;;;;;;5034918;28;20057;-83
2023/12/11 09:27:04;;;;;;;12.98;2.97;;;8.80;99.90;;;;;;5058289;28;20044;-83
2023/12/11 09:29:30;;;;;;;15.20;3.60;;;8.80;99.90;;;;;;5059772;28;20048;-80
2023/12/11 09:31:55;;;;;;;11.68;3.15;;;8.70;99.90;;;;;;5070469;28;20077;-80
2023/12/11 09:34:21;;;;;;;12.88;3.17;;;8.70;99.90;;;;;;5070881;28;20102;-82
2023/12/11 09:36:46;;;;;;;18.30;3.80;;;8.70;99.90;;;;;;5070325;28;20049;-84
2023/12/11 09:39:12;;;;;;;19.60;4.72;;;8.70;99.90;;;;;;5055109;28;20037;-82
2023/12/11 09:41:39;;;;;;;17.50;4.35;;;8.80;99.90;;;;;;5051346;28;20053;-83
2023/12/11 09:44:05;;;;;;;17.52;6.30;;;8.90;99.90;;;;;;5070190;28;20127;-82
2023/12/11 09:46:44;;;;;;;16.23;5.85;;;8.80;99.90;;;;;;5050866;28;20206;-82
2023/12/11 09:49:10;;;;;;;11.20;2.80;;;8.80;99.90;;;;;;5069666;28;20125;-81
2023/12/11 09:51:36;;;;;;;21.20;4.80;;;8.80;99.90;;;;;;5069332;28;20040;-83
2023/12/11 09:54:04;;;;;;;20.00;3.90;;;8.80;99.90;;;;;;5070796;28;20105;-83
2023/12/11 09:56:31;;;;;;;16.73;4.03;;;8.80;99.90;;;;;;5054171;28;20056;-83
2023/12/11 09:58:57;;;;;;;20.70;3.63;;;8.80;99.90;;;;;;5052001;28;20413;-83
2023/12/11 10:01:23;;;;;;;15.00;4.07;;;8.70;99.90;;;;;;5067226;28;20836;-83
2023/12/11 10:03:49;;;;;;;15.30;4.05;;;8.80;99.90;;;;;;5071715;28;20048;-84
2023/12/11 10:06:15;;;;;;;15.38;3.75;;;8.80;99.90;;;;;;5069746;28;20511;-83
2023/12/11 10:08:42;;;;;;;17.00;4.22;;;8.90;99.90;;;;;;5063785;28;20040;-87
2023/12/11 10:11:13;;;;;;;20.77;4.30;;;8.90;99.90;;;;;;5051803;28;20049;-82
2023/12/11 10:13:39;;;;;;;16.95;3.58;;;8.90;99.90;;;;;;5060270;28;20545;-82
2023/12/11 10:16:25;;;;;;;18.88;3.65;;;8.90;99.90;;;;;;5065766;28;20040;-82
2023/12/11 10:18:50;;;;;;;16.77;3.10;;;9.00;99.90;;;;;;5070019;28;20140;-81
2023/12/11 10:21:16;;;;;;;18.23;3.92;;;9.00;99.90;;;;;;5060118;28;20454;-82
2023/12/11 10:23:42;;;;;;;21.95;3.90;;;9.00;99.90;;;;;;5061299;28;20045;-82
2023/12/11 10:26:08;;;;;;;20.48;3.67;;;9.00;99.90;;;;;;5056588;28;20127;-80
2023/12/11 10:28:34;;;;;;;22.73;3.65;;;9.00;99.90;;;;;;5055503;28;20090;-81
2023/12/11 10:31:02;;;;;;;20.98;2.90;;;9.00;99.90;;;;;;5059712;28;20052;-81
2023/12/11 10:33:31;;;;;;;14.65;2.25;;;9.00;99.90;;;;;;5080282;28;20047;-81
2023/12/11 10:36:10;;;;;;;14.85;1.88;;;9.10;99.90;;;;;;5072926;28;20050;-81
2023/12/11 10:38:35;;;;;;;12.57;1.77;;;9.10;99.90;;;;;;5063845;28;20049;-80
2023/12/11 10:41:01;;;;;;;9.25;1.75;;;9.00;99.90;;;;;;5050047;28;20071;-77
2023/12/11 10:43:26;;;;;;;12.00;1.73;;;9.10;99.90;;;;;;5051448;28;20041;-81
2023/12/11 10:45:53;;;;;;;14.20;1.45;;;9.10;99.90;;;;;;5065375;28;20408;-80
2023/12/11 10:48:20;;;;;;;12.25;1.52;;;9.20;99.90;;;;;;5068950;28;20048;-81
2023/12/11 10:50:46;;;;;;;13.88;1.48;;;9.10;99.90;;;;;;5052910;28;20045;-82
2023/12/11 10:53:12;;;;;;;17.55;2.17;;;9.10;99.90;;;;;;5066627;28;20055;-81
2023/12/11 10:55:38;;;;;;;13.35;2.72;;;9.20;99.90;;;;;;5062068;28;20052;-82
2023/12/11 10:58:07;;;;;;;8.70;1.88;;;9.10;99.90;;;;;;5065398;28;20036;-79
2023/12/11 11:00:33;;;;;;;11.93;2.83;;;9.10;99.90;;;;;;5083405;28;20044;-81
2023/12/11 11:03:00;;;;;;;17.33;2.58;;;9.20;99.90;;;;;;5069799;28;20079;-82
2023/12/11 11:05:28;;;;;;;22.02;3.35;;;9.20;99.90;;;;;;5069016;28;20053;-80
2023/12/11 11:08:03;;;;;;;22.65;2.60;;;9.20;99.90;;;;;;5069519;28;20495;-81
2023/12/11 11:10:36;;;;;;;14.32;2.60;;;9.20;99.90;;;;;;5068061;28;20055;-81
2023/12/11 11:13:08;;;;;;;17.83;2.87;;;9.20;99.90;;;;;;5050129;28;20049;-81
2023/12/11 11:15:34;;;;;;;19.98;3.22;;;9.20;99.90;;;;;;5068334;28;20048;-80
2023/12/11 11:17:59;;;;;;;15.45;3.17;;;9.20;99.90;;;;;;5068336;28;20431;-80
2023/12/11 11:20:27;;;;;;;26.13;3.40;;;9.20;99.90;;;;;;5053414;28;20052;-80
2023/12/11 11:23:16;;;;;;;15.38;2.58;;;9.20;99.90;;;;;;5069058;28;20728;-82
2023/12/11 11:25:45;;;;;;;17.80;2.83;;;9.20;99.90;;;;;;5053196;28;20045;-80
2023/12/11 11:28:32;;;;;;;15.30;2.40;;;9.20;99.90;;;;;;5070806;28;20048;-80
2023/12/11 11:30:58;;;;;;;17.25;2.80;;;9.20;99.90;;;;;;5060204;28;20049;-81
2023/12/11 11:33:23;;;;;;;16.15;2.70;;;9.20;99.90;;;;;;5067131;28;20044;-81
2023/12/11 11:35:51;;;;;;;21.20;2.38;;;9.20;99.90;;;;;;5063035;28;20076;-81
2023/12/11 11:38:19;;;;;;;15.68;2.25;;;9.20;99.90;;;;;;5053686;28;20049;-81
2023/12/11 11:40:45;;;;;;;15.75;2.67;;;9.20;99.90;;;;;;5061715;28;20049;-80
2023/12/11 11:43:11;;;;;;;12.95;1.58;;;9.20;99.90;;;;;;5073466;28;20051;-81
2023/12/11 11:45:37;;;;;;;11.52;1.65;;;9.20;99.90;;;;;;5066259;28;20048;-81
2023/12/11 11:48:04;;;;;;;10.68;2.40;;;9.20;99.90;;;;;;5072255;28;20496;-82
2023/12/11 11:50:29;;;;;;;12.82;2.17;;;9.20;99.90;;;;;;5072961;28;20052;-80
2023/12/11 11:53:02;;;;;;;15.43;3.53;;;9.20;99.90;;;;;;5074363;28;20071;-81
2023/12/11 11:55:28;;;;;;;16.45;4.47;;;9.20;99.90;;;;;;5071685;28;20495;-82
2023/12/11 11:57:54;;;;;;;8.52;1.25;;;9.20;99.90;;;;;;5072957;28;20082;-81
2023/12/11 12:00:28;;;;;;;11.38;1.50;;;9.20;99.90;;;;;;5071435;28;20053;-82
2023/12/11 12:03:05;;;;;;;10.68;1.45;;;9.20;99.90;;;;;;5073254;28;20067;-81
2023/12/11 12:05:31;;;;;;;9.50;1.30;;;9.30;99.90;;;;;;5064667;28;20103;-81
2023/12/11 12:07:57;;;;;;;13.70;1.67;;;9.10;99.90;;;;;;5053628;28;20049;-81
2023/12/11 12:10:23;;;;;;;10.85;1.48;;;9.10;99.90;;;;;;5053019;28;20071;-81
2023/12/11 12:12:57;;;;;;;10.48;1.58;;;9.10;99.90;;;;;;5068951;28;20056;-81
2023/12/11 12:15:22;;;;;;;8.88;1.25;;;9.20;99.90;;;;;;5059030;28;20048;-81
2023/12/11 12:17:48;;;;;;;10.98;1.27;;;9.10;99.90;;;;;;5059352;28;20048;-83
2023/12/11 12:20:17;;;;;;;8.80;2.38;;;9.20;99.90;;;;;;5053140;28;20057;-79
2023/12/11 12:23:02;;;;;;;17.45;1.75;;;9.10;99.90;;;;;;5055755;28;20123;-81
2023/12/11 12:25:28;;;;;;;9.25;2.00;;;9.10;99.90;;;;;;5052557;28;20049;-82
2023/12/11 12:27:57;;;;;;;10.20;1.73;;;9.10;99.90;;;;;;5072905;28;20076;-80
2023/12/11 12:30:24;;;;;;;15.02;3.20;;;9.10;99.90;;;;;;5046546;28;20076;-83
2023/12/11 12:32:53;;;;;;;14.55;2.60;;;9.10;99.90;;;;;;5052875;28;20123;-80
2023/12/11 12:35:20;;;;;;;16.17;2.50;;;9.10;99.90;;;;;;5053955;28;20049;-81
2023/12/11 12:37:48;;;;;;;16.55;3.38;;;9.10;99.90;;;;;;5067874;28;20479;-81
2023/12/11 12:40:16;;;;;;;13.60;2.72;;;9.10;99.90;;;;;;5052600;28;20571;-80
2023/12/11 12:42:42;;;;;;;12.57;2.20;;;9.10;99.90;;;;;;5042883;28;20090;-82
2023/12/11 12:45:09;;;;;;;17.05;2.95;;;9.10;99.90;;;;;;5051219;28;20504;-81